sensor_id;sensor_type;location;lat;lon;timestamp;temperature;humidity
68354;DHT22;55274;43.060;25.618;2022-08-19T00:01:43;23.80;66.50
68354;DHT22;55274;43.060;25.618;2022-08-19T00:04:11;23.80;67.00
68354;DHT22;55274;43.060;25.618;2022-08-19T00:06:39;23.70;67.10
68354;DHT22;55274;43.060;25.618;2022-08-19T00:09:07;23.60;67.60
68354;DHT22;55274;43.060;25.618;2022-08-19T00:11:34;23.50;68.00
68354;DHT22;55274;43.060;25.618;2022-08-19T00:14:02;23.40;67.60
68354;DHT22;55274;43.060;25.618;2022-08-19T00:16:28;23.30;67.80
68354;DHT22;55274;43.060;25.618;2022-08-19T00:18:54;23.30;67.80
68354;DHT22;55274;43.060;25.618;2022-08-19T00:21:24;23.40;67.80
68354;DHT22;55274;43.060;25.618;2022-08-19T00:23:50;23.40;67.90
68354;DHT22;55274;43.060;25.618;2022-08-19T00:26:16;23.40;68.10
68354;DHT22;55274;43.060;25.618;2022-08-19T00:28:42;23.30;68.10
68354;DHT22;55274;43.060;25.618;2022-08-19T00:31:08;23.30;68.20
68354;DHT22;55274;43.060;25.618;2022-08-19T00:33:35;23.30;68.40
68354;DHT22;55274;43.060;25.618;2022-08-19T00:36:03;23.30;68.80
68354;DHT22;55274;43.060;25.618;2022-08-19T00:38:30;23.30;68.60
68354;DHT22;55274;43.060;25.618;2022-08-19T00:40:56;23.30;68.40
68354;DHT22;55274;43.060;25.618;2022-08-19T00:43:24;23.30;68.20
68354;DHT22;55274;43.060;25.618;2022-08-19T00:45:52;23.30;68.30
68354;DHT22;55274;43.060;25.618;2022-08-19T00:48:19;23.30;68.50
68354;DHT22;55274;43.060;25.618;2022-08-19T00:50:48;23.20;68.60
68354;DHT22;55274;43.060;25.618;2022-08-19T00:53:16;23.20;68.70
68354;DHT22;55274;43.060;25.618;2022-08-19T00:55:48;23.20;69.00
68354;DHT22;55274;43.060;25.618;2022-08-19T00:58:18;23.10;69.20
68354;DHT22;55274;43.060;25.618;2022-08-19T01:00:46;23.00;69.70
68354;DHT22;55274;43.060;25.618;2022-08-19T01:03:15;23.00;69.60
68354;DHT22;55274;43.060;25.618;2022-08-19T01:05:43;23.00;69.70
68354;DHT22;55274;43.060;25.618;2022-08-19T01:08:10;22.90;69.80
68354;DHT22;55274;43.060;25.618;2022-08-19T01:10:41;22.90;70.30
68354;DHT22;55274;43.060;25.618;2022-08-19T01:13:09;22.80;70.40
68354;DHT22;55274;43.060;25.618;2022-08-19T01:15:49;22.80;70.30
68354;DHT22;55274;43.060;25.618;2022-08-19T01:18:17;22.70;70.60
68354;DHT22;55274;43.060;25.618;2022-08-19T01:20:43;22.60;70.80
68354;DHT22;55274;43.060;25.618;2022-08-19T01:23:10;22.60;71.00
68354;DHT22;55274;43.060;25.618;2022-08-19T01:25:49;22.60;71.20
68354;DHT22;55274;43.060;25.618;2022-08-19T01:28:27;22.50;71.40
68354;DHT22;55274;43.060;25.618;2022-08-19T01:30:53;22.60;71.20
68354;DHT22;55274;43.060;25.618;2022-08-19T01:33:20;22.60;71.30
68354;DHT22;55274;43.060;25.618;2022-08-19T01:35:46;22.60;71.50
68354;DHT22;55274;43.060;25.618;2022-08-19T01:38:24;22.50;71.50
68354;DHT22;55274;43.060;25.618;2022-08-19T01:40:51;22.60;71.30
68354;DHT22;55274;43.060;25.618;2022-08-19T01:43:17;22.60;71.60
68354;DHT22;55274;43.060;25.618;2022-08-19T01:45:45;22.50;72.00
68354;DHT22;55274;43.060;25.618;2022-08-19T01:48:11;22.50;72.30
68354;DHT22;55274;43.060;25.618;2022-08-19T01:50:37;22.40;72.20
68354;DHT22;55274;43.060;25.618;2022-08-19T01:53:06;22.40;72.20
68354;DHT22;55274;43.060;25.618;2022-08-19T01:55:33;22.30;72.20
68354;DHT22;55274;43.060;25.618;2022-08-19T01:58:01;22.30;72.40
68354;DHT22;55274;43.060;25.618;2022-08-19T02:00:30;22.20;72.70
68354;DHT22;55274;43.060;25.618;2022-08-19T02:02:56;22.20;72.80
68354;DHT22;55274;43.060;25.618;2022-08-19T02:05:22;22.30;72.60
68354;DHT22;55274;43.060;25.618;2022-08-19T02:07:48;22.30;72.60
68354;DHT22;55274;43.060;25.618;2022-08-19T02:10:19;22.30;72.50
68354;DHT22;55274;43.060;25.618;2022-08-19T02:12:46;22.30;72.60
68354;DHT22;55274;43.060;25.618;2022-08-19T02:15:12;22.20;72.60
68354;DHT22;55274;43.060;25.618;2022-08-19T02:17:39;22.20;72.60
68354;DHT22;55274;43.060;25.618;2022-08-19T02:20:05;22.20;72.60
68354;DHT22;55274;43.060;25.618;2022-08-19T02:22:33;22.20;72.80
68354;DHT22;55274;43.060;25.618;2022-08-19T02:24:59;22.10;73.30
68354;DHT22;55274;43.060;25.618;2022-08-19T02:27:25;22.10;73.50
68354;DHT22;55274;43.060;25.618;2022-08-19T02:29:52;22.00;73.70
68354;DHT22;55274;43.060;25.618;2022-08-19T02:32:18;22.00;73.60
68354;DHT22;55274;43.060;25.618;2022-08-19T02:34:46;22.00;73.80
68354;DHT22;55274;43.060;25.618;2022-08-19T02:37:12;22.00;73.70
68354;DHT22;55274;43.060;25.618;2022-08-19T02:39:56;22.00;74.00
68354;DHT22;55274;43.060;25.618;2022-08-19T02:42:22;21.80;74.20
68354;DHT22;55274;43.060;25.618;2022-08-19T02:44:48;21.80;74.50
68354;DHT22;55274;43.060;25.618;2022-08-19T02:47:14;21.70;74.80
68354;DHT22;55274;43.060;25.618;2022-08-19T02:49:40;21.70;74.80
68354;DHT22;55274;43.060;25.618;2022-08-19T02:52:06;21.70;74.90
68354;DHT22;55274;43.060;25.618;2022-08-19T02:54:32;21.70;75.10
68354;DHT22;55274;43.060;25.618;2022-08-19T02:56:58;21.70;75.10
68354;DHT22;55274;43.060;25.618;2022-08-19T02:59:24;21.70;75.00
68354;DHT22;55274;43.060;25.618;2022-08-19T03:01:51;21.70;75.10
68354;DHT22;55274;43.060;25.618;2022-08-19T03:04:18;21.60;75.00
68354;DHT22;55274;43.060;25.618;2022-08-19T03:06:46;21.60;75.00
68354;DHT22;55274;43.060;25.618;2022-08-19T03:09:13;21.60;75.10
68354;DHT22;55274;43.060;25.618;2022-08-19T03:11:39;21.50;75.00
68354;DHT22;55274;43.060;25.618;2022-08-19T03:14:06;21.50;75.20
68354;DHT22;55274;43.060;25.618;2022-08-19T03:16:35;21.50;75.40
68354;DHT22;55274;43.060;25.618;2022-08-19T03:19:01;21.40;75.30
68354;DHT22;55274;43.060;25.618;2022-08-19T03:21:30;21.40;75.30
68354;DHT22;55274;43.060;25.618;2022-08-19T03:23:58;21.40;75.40
68354;DHT22;55274;43.060;25.618;2022-08-19T03:26:25;21.30;75.40
68354;DHT22;55274;43.060;25.618;2022-08-19T03:28:51;21.30;75.50
68354;DHT22;55274;43.060;25.618;2022-08-19T03:31:21;21.40;75.80
68354;DHT22;55274;43.060;25.618;2022-08-19T03:33:49;21.40;75.90
68354;DHT22;55274;43.060;25.618;2022-08-19T03:36:17;21.30;76.00
68354;DHT22;55274;43.060;25.618;2022-08-19T03:38:50;21.30;76.40
68354;DHT22;55274;43.060;25.618;2022-08-19T03:41:19;21.20;76.40
68354;DHT22;55274;43.060;25.618;2022-08-19T03:43:46;21.20;76.80
68354;DHT22;55274;43.060;25.618;2022-08-19T03:46:15;21.20;76.90
68354;DHT22;55274;43.060;25.618;2022-08-19T05:29:56;29.90;50.20
68354;DHT22;55274;43.060;25.618;2022-08-19T05:32:22;32.10;44.80
68354;DHT22;55274;43.060;25.618;2022-08-19T05:34:49;32.30;43.70
68354;DHT22;55274;43.060;25.618;2022-08-19T05:37:15;32.30;43.40
68354;DHT22;55274;43.060;25.618;2022-08-19T05:39:40;32.40;43.10
68354;DHT22;55274;43.060;25.618;2022-08-19T05:42:09;32.40;42.80
68354;DHT22;55274;43.060;25.618;2022-08-19T05:44:39;32.60;42.40
68354;DHT22;55274;43.060;25.618;2022-08-19T05:47:06;32.90;42.20
68354;DHT22;55274;43.060;25.618;2022-08-19T05:49:34;33.30;41.30
68354;DHT22;55274;43.060;25.618;2022-08-19T05:52:07;33.50;40.70
68354;DHT22;55274;43.060;25.618;2022-08-19T05:54:34;33.50;40.00
68354;DHT22;55274;43.060;25.618;2022-08-19T05:57:01;33.30;40.30
68354;DHT22;55274;43.060;25.618;2022-08-19T05:59:27;33.10;40.90
68354;DHT22;55274;43.060;25.618;2022-08-19T06:01:54;33.30;40.40
68354;DHT22;55274;43.060;25.618;2022-08-19T06:04:21;33.40;40.10
68354;DHT22;55274;43.060;25.618;2022-08-19T06:06:51;33.60;39.30
68354;DHT22;55274;43.060;25.618;2022-08-19T06:09:18;33.50;39.80
68354;DHT22;55274;43.060;25.618;2022-08-19T06:11:46;33.20;40.30
68354;DHT22;55274;43.060;25.618;2022-08-19T06:14:15;33.40;39.50
68354;DHT22;55274;43.060;25.618;2022-08-19T06:31:29;33.30;39.70
68354;DHT22;55274;43.060;25.618;2022-08-19T06:33:59;33.50;38.90
68354;DHT22;55274;43.060;25.618;2022-08-19T06:36:29;33.50;39.00
68354;DHT22;55274;43.060;25.618;2022-08-19T06:39:00;33.50;38.90
68354;DHT22;55274;43.060;25.618;2022-08-19T06:41:27;33.50;39.30
68354;DHT22;55274;43.060;25.618;2022-08-19T06:43:54;33.50;39.30
68354;DHT22;55274;43.060;25.618;2022-08-19T06:46:20;33.60;38.70
68354;DHT22;55274;43.060;25.618;2022-08-19T06:48:47;33.80;39.20
68354;DHT22;55274;43.060;25.618;2022-08-19T06:51:15;33.90;38.70
68354;DHT22;55274;43.060;25.618;2022-08-19T06:53:50;33.90;38.00
68354;DHT22;55274;43.060;25.618;2022-08-19T06:56:20;33.70;38.60
68354;DHT22;55274;43.060;25.618;2022-08-19T07:11:12;34.30;38.10
68354;DHT22;55274;43.060;25.618;2022-08-19T07:13:39;34.70;37.80
68354;DHT22;55274;43.060;25.618;2022-08-19T07:16:10;35.10;37.50
68354;DHT22;55274;43.060;25.618;2022-08-19T07:18:37;35.10;37.20
68354;DHT22;55274;43.060;25.618;2022-08-19T07:23:33;35.40;36.90
68354;DHT22;55274;43.060;25.618;2022-08-19T07:26:13;35.50;36.70
68354;DHT22;55274;43.060;25.618;2022-08-19T07:28:39;35.90;36.00
68354;DHT22;55274;43.060;25.618;2022-08-19T07:31:07;35.90;35.10
68354;DHT22;55274;43.060;25.618;2022-08-19T07:33:33;35.90;35.30
68354;DHT22;55274;43.060;25.618;2022-08-19T07:36:01;36.00;35.90
68354;DHT22;55274;43.060;25.618;2022-08-19T07:38:27;35.90;35.60
68354;DHT22;55274;43.060;25.618;2022-08-19T07:40:52;35.80;35.90
68354;DHT22;55274;43.060;25.618;2022-08-19T07:43:19;35.70;35.90
68354;DHT22;55274;43.060;25.618;2022-08-19T07:45:46;35.80;35.60
68354;DHT22;55274;43.060;25.618;2022-08-19T07:48:12;36.00;35.70
68354;DHT22;55274;43.060;25.618;2022-08-19T07:50:39;36.00;35.20
68354;DHT22;55274;43.060;25.618;2022-08-19T07:53:05;36.20;34.80
68354;DHT22;55274;43.060;25.618;2022-08-19T07:55:31;36.30;34.70
68354;DHT22;55274;43.060;25.618;2022-08-19T07:57:57;36.40;34.30
68354;DHT22;55274;43.060;25.618;2022-08-19T08:00:23;36.40;33.80
68354;DHT22;55274;43.060;25.618;2022-08-19T08:02:49;36.70;33.00
68354;DHT22;55274;43.060;25.618;2022-08-19T08:05:15;36.80;32.60
68354;DHT22;55274;43.060;25.618;2022-08-19T08:07:59;36.60;33.50
68354;DHT22;55274;43.060;25.618;2022-08-19T08:10:44;36.60;33.40
68354;DHT22;55274;43.060;25.618;2022-08-19T08:13:09;36.70;32.90
68354;DHT22;55274;43.060;25.618;2022-08-19T08:15:36;36.90;32.70
68354;DHT22;55274;43.060;25.618;2022-08-19T08:18:03;36.90;32.00
68354;DHT22;55274;43.060;25.618;2022-08-19T08:20:29;37.10;32.70
68354;DHT22;55274;43.060;25.618;2022-08-19T08:22:55;37.40;32.20
68354;DHT22;55274;43.060;25.618;2022-08-19T08:25:39;37.60;32.20
68354;DHT22;55274;43.060;25.618;2022-08-19T08:28:05;37.60;32.30
68354;DHT22;55274;43.060;25.618;2022-08-19T08:30:32;37.60;31.30
68354;DHT22;55274;43.060;25.618;2022-08-19T08:33:01;37.70;31.40
68354;DHT22;55274;43.060;25.618;2022-08-19T08:35:27;37.90;30.70
68354;DHT22;55274;43.060;25.618;2022-08-19T08:37:54;37.80;31.00
68354;DHT22;55274;43.060;25.618;2022-08-19T08:40:26;37.90;30.80
68354;DHT22;55274;43.060;25.618;2022-08-19T08:45:34;37.90;30.00
68354;DHT22;55274;43.060;25.618;2022-08-19T08:48:10;37.90;29.90
68354;DHT22;55274;43.060;25.618;2022-08-19T08:50:43;37.90;30.00
68354;DHT22;55274;43.060;25.618;2022-08-19T08:53:14;38.10;30.50
68354;DHT22;55274;43.060;25.618;2022-08-19T08:55:41;38.10;30.30
68354;DHT22;55274;43.060;25.618;2022-08-19T08:58:13;38.00;30.30
68354;DHT22;55274;43.060;25.618;2022-08-19T09:00:44;38.10;30.10
68354;DHT22;55274;43.060;25.618;2022-08-19T09:03:38;38.20;30.40
68354;DHT22;55274;43.060;25.618;2022-08-19T09:09:17;38.20;28.40
68354;DHT22;55274;43.060;25.618;2022-08-19T09:16:58;37.80;30.10
68354;DHT22;55274;43.060;25.618;2022-08-19T09:19:25;37.30;29.90
68354;DHT22;55274;43.060;25.618;2022-08-19T09:21:50;37.40;30.10
68354;DHT22;55274;43.060;25.618;2022-08-19T09:24:16;37.90;29.00
68354;DHT22;55274;43.060;25.618;2022-08-19T09:26:42;37.30;30.40
68354;DHT22;55274;43.060;25.618;2022-08-19T09:29:11;37.50;29.60
68354;DHT22;55274;43.060;25.618;2022-08-19T09:31:37;37.40;30.00
68354;DHT22;55274;43.060;25.618;2022-08-19T09:34:03;37.20;30.60
68354;DHT22;55274;43.060;25.618;2022-08-19T09:36:30;37.50;29.60
68354;DHT22;55274;43.060;25.618;2022-08-19T09:39:03;37.70;29.40
68354;DHT22;55274;43.060;25.618;2022-08-19T09:41:29;37.60;29.80
68354;DHT22;55274;43.060;25.618;2022-08-19T09:43:56;37.70;29.20
68354;DHT22;55274;43.060;25.618;2022-08-19T09:46:25;37.80;29.10
68354;DHT22;55274;43.060;25.618;2022-08-19T09:48:52;37.90;29.30
68354;DHT22;55274;43.060;25.618;2022-08-19T09:51:24;37.90;29.50
68354;DHT22;55274;43.060;25.618;2022-08-19T09:53:51;38.00;29.80
68354;DHT22;55274;43.060;25.618;2022-08-19T09:56:20;38.30;29.20
68354;DHT22;55274;43.060;25.618;2022-08-19T09:58:46;38.50;28.70
68354;DHT22;55274;43.060;25.618;2022-08-19T10:01:24;38.60;28.10
68354;DHT22;55274;43.060;25.618;2022-08-19T10:03:54;39.00;27.90
68354;DHT22;55274;43.060;25.618;2022-08-19T10:06:23;39.50;27.30
68354;DHT22;55274;43.060;25.618;2022-08-19T10:08:50;39.20;27.10
68354;DHT22;55274;43.060;25.618;2022-08-19T10:11:18;38.90;27.90
68354;DHT22;55274;43.060;25.618;2022-08-19T10:13:44;38.40;29.20
68354;DHT22;55274;43.060;25.618;2022-08-19T10:16:14;38.60;28.70
68354;DHT22;55274;43.060;25.618;2022-08-19T10:18:41;39.00;28.40
68354;DHT22;55274;43.060;25.618;2022-08-19T10:21:25;39.00;28.40
68354;DHT22;55274;43.060;25.618;2022-08-19T10:23:53;39.20;26.70
68354;DHT22;55274;43.060;25.618;2022-08-19T10:26:34;39.30;26.90
68354;DHT22;55274;43.060;25.618;2022-08-19T10:29:02;39.30;26.70
68354;DHT22;55274;43.060;25.618;2022-08-19T10:31:31;39.60;26.50
68354;DHT22;55274;43.060;25.618;2022-08-19T10:33:58;39.30;27.00
68354;DHT22;55274;43.060;25.618;2022-08-19T10:36:29;39.10;27.40
68354;DHT22;55274;43.060;25.618;2022-08-19T10:38:57;38.30;28.80
68354;DHT22;55274;43.060;25.618;2022-08-19T10:41:29;37.70;28.90
68354;DHT22;55274;43.060;25.618;2022-08-19T10:44:03;37.70;29.20
68354;DHT22;55274;43.060;25.618;2022-08-19T10:46:36;37.60;30.00
68354;DHT22;55274;43.060;25.618;2022-08-19T10:49:04;37.80;30.20
68354;DHT22;55274;43.060;25.618;2022-08-19T10:51:31;38.10;30.50
68354;DHT22;55274;43.060;25.618;2022-08-19T10:54:16;38.20;29.10
68354;DHT22;55274;43.060;25.618;2022-08-19T10:56:43;38.50;29.00
68354;DHT22;55274;43.060;25.618;2022-08-19T10:59:23;38.80;28.10
68354;DHT22;55274;43.060;25.618;2022-08-19T11:01:51;39.00;28.20
68354;DHT22;55274;43.060;25.618;2022-08-19T11:04:18;39.10;27.50
68354;DHT22;55274;43.060;25.618;2022-08-19T11:06:46;38.90;26.60
68354;DHT22;55274;43.060;25.618;2022-08-19T11:09:24;39.10;27.60
68354;DHT22;55274;43.060;25.618;2022-08-19T11:11:51;38.90;26.90
68354;DHT22;55274;43.060;25.618;2022-08-19T11:14:20;39.20;27.20
68354;DHT22;55274;43.060;25.618;2022-08-19T11:16:48;39.50;26.80
68354;DHT22;55274;43.060;25.618;2022-08-19T11:19:15;39.00;28.20
68354;DHT22;55274;43.060;25.618;2022-08-19T11:21:45;38.10;28.70
68354;DHT22;55274;43.060;25.618;2022-08-19T11:24:18;37.00;29.80
68354;DHT22;55274;43.060;25.618;2022-08-19T11:26:47;36.40;30.30
68354;DHT22;55274;43.060;25.618;2022-08-19T11:29:15;36.10;30.70
68354;DHT22;55274;43.060;25.618;2022-08-19T11:31:44;36.50;30.70
68354;DHT22;55274;43.060;25.618;2022-08-19T11:34:14;36.70;30.00
68354;DHT22;55274;43.060;25.618;2022-08-19T11:36:43;37.40;29.40
68354;DHT22;55274;43.060;25.618;2022-08-19T11:39:12;37.40;28.60
68354;DHT22;55274;43.060;25.618;2022-08-19T11:41:39;37.90;26.60
68354;DHT22;55274;43.060;25.618;2022-08-19T11:44:05;37.90;26.20
68354;DHT22;55274;43.060;25.618;2022-08-19T11:46:34;37.90;27.10
68354;DHT22;55274;43.060;25.618;2022-08-19T11:49:00;38.10;27.50
68354;DHT22;55274;43.060;25.618;2022-08-19T11:51:27;38.40;26.40
68354;DHT22;55274;43.060;25.618;2022-08-19T11:53:54;38.70;26.20
68354;DHT22;55274;43.060;25.618;2022-08-19T11:56:24;39.00;27.40
68354;DHT22;55274;43.060;25.618;2022-08-19T11:58:51;38.30;28.00
68354;DHT22;55274;43.060;25.618;2022-08-19T12:01:19;37.30;29.00
68354;DHT22;55274;43.060;25.618;2022-08-19T12:03:46;36.70;29.10
68354;DHT22;55274;43.060;25.618;2022-08-19T12:06:16;36.40;29.50
68354;DHT22;55274;43.060;25.618;2022-08-19T12:08:43;36.40;30.00
68354;DHT22;55274;43.060;25.618;2022-08-19T12:11:11;36.70;29.50
68354;DHT22;55274;43.060;25.618;2022-08-19T12:13:38;36.60;29.30
68354;DHT22;55274;43.060;25.618;2022-08-19T12:16:16;36.70;29.10
68354;DHT22;55274;43.060;25.618;2022-08-19T12:18:43;37.10;28.50
68354;DHT22;55274;43.060;25.618;2022-08-19T12:21:16;37.20;28.30
68354;DHT22;55274;43.060;25.618;2022-08-19T12:23:43;37.40;28.10
68354;DHT22;55274;43.060;25.618;2022-08-19T12:26:10;37.50;26.80
68354;DHT22;55274;43.060;25.618;2022-08-19T12:28:37;37.60;27.10
68354;DHT22;55274;43.060;25.618;2022-08-19T12:31:03;38.10;26.90
68354;DHT22;55274;43.060;25.618;2022-08-19T12:33:29;38.10;24.20
68354;DHT22;55274;43.060;25.618;2022-08-19T12:35:55;38.30;24.60
68354;DHT22;55274;43.060;25.618;2022-08-19T12:38:25;38.50;25.20
68354;DHT22;55274;43.060;25.618;2022-08-19T12:40:51;38.30;25.90
68354;DHT22;55274;43.060;25.618;2022-08-19T12:43:19;38.40;25.90
68354;DHT22;55274;43.060;25.618;2022-08-19T12:45:46;38.30;27.50
68354;DHT22;55274;43.060;25.618;2022-08-19T12:48:12;37.80;28.40
68354;DHT22;55274;43.060;25.618;2022-08-19T12:50:42;37.30;28.80
68354;DHT22;55274;43.060;25.618;2022-08-19T12:53:11;37.40;28.30
68354;DHT22;55274;43.060;25.618;2022-08-19T12:55:37;37.30;29.00
68354;DHT22;55274;43.060;25.618;2022-08-19T12:58:04;37.00;28.60
68354;DHT22;55274;43.060;25.618;2022-08-19T13:00:30;36.70;29.20
68354;DHT22;55274;43.060;25.618;2022-08-19T13:02:58;36.40;29.90
68354;DHT22;55274;43.060;25.618;2022-08-19T13:05:28;36.30;30.00
68354;DHT22;55274;43.060;25.618;2022-08-19T13:07:56;36.50;29.60
68354;DHT22;55274;43.060;25.618;2022-08-19T13:10:28;36.60;29.60
68354;DHT22;55274;43.060;25.618;2022-08-19T13:12:55;36.60;29.60
68354;DHT22;55274;43.060;25.618;2022-08-19T13:15:22;36.40;29.90
68354;DHT22;55274;43.060;25.618;2022-08-19T13:17:50;36.50;29.80
68354;DHT22;55274;43.060;25.618;2022-08-19T13:20:18;36.50;29.70
68354;DHT22;55274;43.060;25.618;2022-08-19T13:22:45;36.20;29.90
68354;DHT22;55274;43.060;25.618;2022-08-19T13:25:12;35.70;31.10
68354;DHT22;55274;43.060;25.618;2022-08-19T13:27:39;35.50;31.50
68354;DHT22;55274;43.060;25.618;2022-08-19T13:30:07;35.30;31.50
68354;DHT22;55274;43.060;25.618;2022-08-19T13:32:52;35.30;32.00
68354;DHT22;55274;43.060;25.618;2022-08-19T13:38:14;36.20;30.30
68354;DHT22;55274;43.060;25.618;2022-08-19T13:40:40;36.40;29.40
68354;DHT22;55274;43.060;25.618;2022-08-19T13:43:07;36.30;29.20
68354;DHT22;55274;43.060;25.618;2022-08-19T13:45:35;36.40;28.50
68354;DHT22;55274;43.060;25.618;2022-08-19T13:48:04;36.40;29.90
68354;DHT22;55274;43.060;25.618;2022-08-19T13:50:39;36.40;30.50
68354;DHT22;55274;43.060;25.618;2022-08-19T13:56:47;36.40;30.70
68354;DHT22;55274;43.060;25.618;2022-08-19T13:59:13;36.40;30.90
68354;DHT22;55274;43.060;25.618;2022-08-19T14:01:40;36.10;31.40
68354;DHT22;55274;43.060;25.618;2022-08-19T14:04:07;36.00;31.10
68354;DHT22;55274;43.060;25.618;2022-08-19T14:06:33;36.00;30.90
68354;DHT22;55274;43.060;25.618;2022-08-19T14:08:59;36.10;31.50
68354;DHT22;55274;43.060;25.618;2022-08-19T14:11:25;36.00;31.00
68354;DHT22;55274;43.060;25.618;2022-08-19T14:13:51;35.80;30.40
68354;DHT22;55274;43.060;25.618;2022-08-19T14:16:17;35.60;30.70
68354;DHT22;55274;43.060;25.618;2022-08-19T14:18:43;35.40;31.30
68354;DHT22;55274;43.060;25.618;2022-08-19T14:21:22;35.40;31.80
68354;DHT22;55274;43.060;25.618;2022-08-19T14:23:49;35.30;31.30
68354;DHT22;55274;43.060;25.618;2022-08-19T14:26:16;35.00;32.00
68354;DHT22;55274;43.060;25.618;2022-08-19T14:28:43;34.90;31.60
68354;DHT22;55274;43.060;25.618;2022-08-19T14:31:14;34.90;31.70
68354;DHT22;55274;43.060;25.618;2022-08-19T14:33:45;35.10;31.70
68354;DHT22;55274;43.060;25.618;2022-08-19T14:36:11;35.20;31.60
68354;DHT22;55274;43.060;25.618;2022-08-19T14:38:37;35.40;31.20
68354;DHT22;55274;43.060;25.618;2022-08-19T14:41:12;35.40;31.10
68354;DHT22;55274;43.060;25.618;2022-08-19T14:43:38;35.40;30.60
68354;DHT22;55274;43.060;25.618;2022-08-19T14:46:05;35.40;30.00
68354;DHT22;55274;43.060;25.618;2022-08-19T14:48:31;35.40;30.90
68354;DHT22;55274;43.060;25.618;2022-08-19T14:50:56;35.50;31.20
68354;DHT22;55274;43.060;25.618;2022-08-19T14:53:22;35.40;31.20
68354;DHT22;55274;43.060;25.618;2022-08-19T14:55:48;35.30;31.50
68354;DHT22;55274;43.060;25.618;2022-08-19T14:58:14;35.40;31.60
68354;DHT22;55274;43.060;25.618;2022-08-19T15:00:40;35.50;31.50
68354;DHT22;55274;43.060;25.618;2022-08-19T15:03:07;35.40;31.60
68354;DHT22;55274;43.060;25.618;2022-08-19T15:05:33;35.30;32.10
68354;DHT22;55274;43.060;25.618;2022-08-19T15:08:04;35.00;32.10
68354;DHT22;55274;43.060;25.618;2022-08-19T15:10:30;34.80;31.80
68354;DHT22;55274;43.060;25.618;2022-08-19T15:12:56;34.70;31.60
68354;DHT22;55274;43.060;25.618;2022-08-19T15:15:22;34.70;31.60
68354;DHT22;55274;43.060;25.618;2022-08-19T15:17:48;34.70;31.50
68354;DHT22;55274;43.060;25.618;2022-08-19T15:20:18;34.70;31.90
68354;DHT22;55274;43.060;25.618;2022-08-19T15:22:45;34.70;31.70
68354;DHT22;55274;43.060;25.618;2022-08-19T15:25:13;34.70;32.10
68354;DHT22;55274;43.060;25.618;2022-08-19T15:27:39;34.60;32.70
68354;DHT22;55274;43.060;25.618;2022-08-19T15:30:06;34.50;33.10
68354;DHT22;55274;43.060;25.618;2022-08-19T15:32:33;34.50;33.30
68354;DHT22;55274;43.060;25.618;2022-08-19T15:35:00;34.50;33.20
68354;DHT22;55274;43.060;25.618;2022-08-19T15:37:27;34.40;32.60
68354;DHT22;55274;43.060;25.618;2022-08-19T15:39:53;34.40;32.40
68354;DHT22;55274;43.060;25.618;2022-08-19T15:42:19;34.50;32.70
68354;DHT22;55274;43.060;25.618;2022-08-19T15:44:46;34.50;32.90
68354;DHT22;55274;43.060;25.618;2022-08-19T15:47:12;34.40;32.90
68354;DHT22;55274;43.060;25.618;2022-08-19T15:49:39;34.40;33.20
68354;DHT22;55274;43.060;25.618;2022-08-19T15:52:04;34.40;33.20
68354;DHT22;55274;43.060;25.618;2022-08-19T15:54:32;34.40;33.70
68354;DHT22;55274;43.060;25.618;2022-08-19T15:56:58;34.30;34.00
68354;DHT22;55274;43.060;25.618;2022-08-19T15:59:42;34.30;34.10
68354;DHT22;55274;43.060;25.618;2022-08-19T16:02:29;34.20;34.80
68354;DHT22;55274;43.060;25.618;2022-08-19T16:05:18;34.10;34.20
68354;DHT22;55274;43.060;25.618;2022-08-19T16:08:04;34.10;34.50
68354;DHT22;55274;43.060;25.618;2022-08-19T16:10:30;34.00;33.90
68354;DHT22;55274;43.060;25.618;2022-08-19T16:12:57;34.00;34.00
68354;DHT22;55274;43.060;25.618;2022-08-19T16:15:28;34.00;34.50
68354;DHT22;55274;43.060;25.618;2022-08-19T16:17:56;33.90;33.90
68354;DHT22;55274;43.060;25.618;2022-08-19T16:20:22;33.90;34.30
68354;DHT22;55274;43.060;25.618;2022-08-19T16:22:49;33.80;35.00
68354;DHT22;55274;43.060;25.618;2022-08-19T16:25:15;33.80;35.10
68354;DHT22;55274;43.060;25.618;2022-08-19T16:27:41;33.70;35.90
68354;DHT22;55274;43.060;25.618;2022-08-19T16:30:07;33.70;35.40
68354;DHT22;55274;43.060;25.618;2022-08-19T16:32:34;33.50;39.30
68354;DHT22;55274;43.060;25.618;2022-08-19T16:35:04;33.40;38.30
68354;DHT22;55274;43.060;25.618;2022-08-19T16:37:31;33.30;39.30
68354;DHT22;55274;43.060;25.618;2022-08-19T16:39:57;33.20;39.40
68354;DHT22;55274;43.060;25.618;2022-08-19T16:42:22;33.20;41.40
68354;DHT22;55274;43.060;25.618;2022-08-19T16:44:48;33.00;41.80
68354;DHT22;55274;43.060;25.618;2022-08-19T16:47:14;32.80;42.00
68354;DHT22;55274;43.060;25.618;2022-08-19T16:49:42;32.60;44.00
68354;DHT22;55274;43.060;25.618;2022-08-19T16:52:08;32.50;44.40
68354;DHT22;55274;43.060;25.618;2022-08-19T16:54:36;32.30;46.20
68354;DHT22;55274;43.060;25.618;2022-08-19T16:57:03;32.20;46.00
68354;DHT22;55274;43.060;25.618;2022-08-19T16:59:32;32.10;46.10
68354;DHT22;55274;43.060;25.618;2022-08-19T17:01:57;32.00;46.00
68354;DHT22;55274;43.060;25.618;2022-08-19T17:04:23;31.90;45.80
68354;DHT22;55274;43.060;25.618;2022-08-19T17:06:49;31.80;46.80
68354;DHT22;55274;43.060;25.618;2022-08-19T17:09:15;31.70;47.00
68354;DHT22;55274;43.060;25.618;2022-08-19T17:11:43;31.60;47.40
68354;DHT22;55274;43.060;25.618;2022-08-19T17:14:09;31.50;47.90
68354;DHT22;55274;43.060;25.618;2022-08-19T17:16:35;31.20;48.80
68354;DHT22;55274;43.060;25.618;2022-08-19T17:19:03;31.00;48.80
68354;DHT22;55274;43.060;25.618;2022-08-19T17:21:32;30.90;48.20
68354;DHT22;55274;43.060;25.618;2022-08-19T17:24:00;30.80;48.10
68354;DHT22;55274;43.060;25.618;2022-08-19T17:26:27;30.80;48.30
68354;DHT22;55274;43.060;25.618;2022-08-19T17:28:55;30.70;48.90
68354;DHT22;55274;43.060;25.618;2022-08-19T17:31:24;30.60;48.90
68354;DHT22;55274;43.060;25.618;2022-08-19T17:33:50;30.50;48.80
68354;DHT22;55274;43.060;25.618;2022-08-19T17:36:21;30.30;48.70
68354;DHT22;55274;43.060;25.618;2022-08-19T17:38:49;30.20;49.00
68354;DHT22;55274;43.060;25.618;2022-08-19T17:41:15;30.00;48.90
68354;DHT22;55274;43.060;25.618;2022-08-19T17:43:41;29.90;48.90
68354;DHT22;55274;43.060;25.618;2022-08-19T17:46:07;29.70;48.70
68354;DHT22;55274;43.060;25.618;2022-08-19T17:48:34;29.60;49.80
68354;DHT22;55274;43.060;25.618;2022-08-19T17:53:57;29.40;51.40